Southern Baltic, Poland
Current Conditions -  °F | °C
As of 8:30 PM on Saturday 25 Oct 2014 (Local Time) from EPGD Reporting Station
Haze Haze  
Wind Chill: 29°   Ceiling: 900
Heat Index: 36°   Visibility: 3mi
Dew Point: 32°   Wind: 9mph
Humidity: 87%   Direction: 200°SSW
Pressure: 30.21"   Gusts: NA
Location:  55.25°N, 18.25°E
Report Text: EPGD 251830Z 20008KT 160V230 5000 BR OVC009 02/M00 Q1023
Loading
Personal Weather Stations






























Interactive Weather Map
Tropical Storm Tracking
New forecast layout! Learn more

10-Day Weather Forecast

Advertisements
Track Severe Weather on mobile